createdAt,value
2016-12-23T19:58:39.364Z,16.30
2016-12-23T19:59:15.636Z,16.30
2016-12-23T20:00:14.510Z,16.40
2016-12-23T20:01:13.283Z,16.40
2016-12-23T20:02:12.939Z,16.40
2016-12-23T20:03:13.034Z,16.50
2016-12-23T20:04:12.934Z,16.50
2016-12-23T20:05:13.428Z,16.50
2016-12-23T20:06:13.210Z,16.50
2016-12-23T20:07:13.684Z,16.60
2016-12-23T20:08:12.919Z,16.50
2016-12-23T20:09:10.300Z,16.40
2016-12-23T20:10:12.968Z,16.40
2016-12-23T20:11:13.302Z,16.40
2016-12-23T20:12:13.073Z,16.40
2016-12-23T20:13:12.790Z,16.40
2016-12-23T20:14:13.760Z,16.40
2016-12-23T20:15:13.952Z,16.40
2016-12-23T20:16:12.927Z,16.40
2016-12-23T20:17:13.807Z,16.40
2016-12-23T20:18:14.382Z,16.40
2016-12-23T20:19:14.075Z,16.40
2016-12-23T20:20:14.485Z,16.40
2016-12-23T20:21:13.033Z,16.40
2016-12-23T20:22:09.719Z,16.40
2016-12-23T20:23:13.315Z,16.40
2016-12-23T20:24:13.257Z,16.40
2016-12-23T20:25:13.335Z,16.40
2016-12-23T20:26:13.205Z,16.40
2016-12-23T20:27:13.251Z,16.40
2016-12-23T20:28:13.558Z,16.40
2016-12-23T20:29:18.230Z,16.40
2016-12-23T20:30:13.160Z,16.40
2016-12-23T20:31:13.474Z,16.40
2016-12-23T20:32:13.475Z,16.40
2016-12-23T20:33:13.686Z,16.40
2016-12-23T20:34:13.936Z,16.40
2016-12-23T20:35:11.893Z,16.30
2016-12-23T20:36:13.814Z,16.30
2016-12-23T20:37:13.341Z,16.40
2016-12-23T20:38:12.700Z,16.40
2016-12-23T20:39:13.799Z,16.30
2016-12-23T20:40:12.730Z,16.30
2016-12-23T20:41:12.845Z,16.40
2016-12-23T20:42:09.386Z,16.40
2016-12-23T20:43:14.690Z,16.30
2016-12-23T20:44:13.106Z,16.30
2016-12-23T20:45:12.087Z,16.30
2016-12-23T20:46:10.450Z,16.30
2016-12-23T20:47:13.620Z,16.30
2016-12-23T20:48:13.585Z,16.30
2016-12-23T20:49:13.777Z,16.30
2016-12-23T20:50:12.376Z,16.30
2016-12-23T20:51:13.366Z,16.30
2016-12-23T20:52:12.771Z,16.30
2016-12-23T20:53:12.974Z,16.30
2016-12-23T20:54:13.295Z,16.30
2016-12-23T20:55:13.786Z,16.30
2016-12-23T20:56:13.406Z,16.30
2016-12-23T20:57:12.511Z,16.30
2016-12-23T20:58:12.898Z,16.30
2016-12-23T20:59:12.260Z,16.30
2016-12-23T21:00:13.453Z,16.30
2016-12-23T21:01:09.471Z,16.30
2016-12-23T21:02:13.658Z,16.30
2016-12-23T21:03:12.242Z,16.30
2016-12-23T21:04:11.876Z,16.30
2016-12-23T21:05:13.288Z,16.30
2016-12-23T21:06:11.745Z,16.30
2016-12-23T21:07:12.165Z,16.30
2016-12-23T21:08:12.418Z,16.30
2016-12-23T21:09:13.291Z,16.30
2016-12-23T21:10:11.676Z,16.30
2016-12-23T21:11:11.977Z,16.30
2016-12-23T21:12:14.278Z,16.30
2016-12-23T21:13:13.198Z,16.20
2016-12-23T21:14:12.471Z,16.20
2016-12-23T21:15:12.297Z,16.20
2016-12-23T21:16:14.368Z,16.20
2016-12-23T21:17:14.248Z,16.10
2016-12-23T21:18:13.206Z,16.10
2016-12-23T21:19:12.488Z,16.10
2016-12-23T21:20:14.483Z,16.10
2016-12-23T21:21:11.821Z,16.10
2016-12-23T21:22:12.021Z,16.00
2016-12-23T21:23:14.910Z,16.00
2016-12-23T21:24:11.976Z,16.00
2016-12-23T21:25:11.841Z,16.00
2016-12-23T21:26:12.519Z,16.00
2016-12-23T21:27:12.208Z,16.00
2016-12-23T21:28:12.376Z,16.00
2016-12-23T21:29:12.385Z,16.00
2016-12-23T21:30:13.800Z,16.00
2016-12-23T21:31:12.931Z,16.00
2016-12-23T21:32:12.657Z,16.00
2016-12-23T21:33:12.943Z,16.00
2016-12-23T21:34:12.681Z,15.90
2016-12-23T21:35:12.056Z,15.90
2016-12-23T21:36:12.677Z,16.00
2016-12-23T21:37:12.815Z,15.90
2016-12-23T21:38:09.117Z,15.90
2016-12-23T21:39:13.401Z,15.90
2016-12-23T21:40:12.731Z,15.90
2016-12-23T21:41:12.044Z,15.90
2016-12-23T21:42:12.107Z,15.90
2016-12-23T21:43:15.435Z,15.90
2016-12-23T21:44:12.376Z,15.90
2016-12-23T21:45:12.450Z,15.80
2016-12-23T21:46:14.255Z,15.90
2016-12-23T21:47:11.965Z,15.90
2016-12-23T21:48:12.737Z,15.80
2016-12-23T21:49:12.037Z,15.80
2016-12-23T21:50:11.553Z,15.80
2016-12-23T21:51:14.394Z,15.80
2016-12-23T21:52:12.343Z,15.80
2016-12-23T21:53:09.632Z,15.80
2016-12-23T21:54:12.921Z,15.80
2016-12-23T21:55:12.167Z,15.80
2016-12-23T21:56:14.175Z,15.80
2016-12-23T21:57:10.127Z,15.80
2016-12-23T21:58:12.323Z,15.80
2016-12-23T21:59:12.365Z,15.80
2016-12-23T22:00:12.519Z,15.80
2016-12-23T22:01:11.852Z,15.80
2016-12-23T22:02:12.385Z,15.80
2016-12-23T22:03:12.315Z,15.80
2016-12-23T22:04:12.083Z,15.80
2016-12-23T22:05:12.033Z,15.80
2016-12-23T22:06:13.050Z,15.80
2016-12-23T22:07:11.504Z,15.80
2016-12-23T22:08:12.413Z,15.80
2016-12-23T22:09:12.820Z,15.80
2016-12-23T22:10:12.516Z,15.80
2016-12-23T22:11:13.202Z,15.80
2016-12-23T22:12:13.005Z,15.80
2016-12-23T22:13:12.332Z,15.80
2016-12-23T22:14:12.282Z,15.80
2016-12-23T22:15:12.548Z,15.80
2016-12-23T22:16:12.474Z,15.80
2016-12-23T22:17:12.162Z,15.80
2016-12-23T22:18:13.312Z,15.80
2016-12-23T22:19:11.931Z,15.80
2016-12-23T22:20:12.463Z,15.80
2016-12-23T22:21:12.649Z,15.80
2016-12-23T22:22:12.735Z,15.80
2016-12-23T22:23:12.926Z,15.80
2016-12-23T22:24:12.466Z,15.80
2016-12-23T22:25:12.084Z,15.80
2016-12-23T22:26:12.425Z,15.80
2016-12-23T22:27:11.853Z,15.80
2016-12-23T22:28:12.560Z,15.80
2016-12-23T22:29:14.368Z,15.80
2016-12-23T22:30:11.974Z,15.80
2016-12-23T22:31:12.672Z,15.80
2016-12-23T22:32:12.656Z,15.80
2016-12-23T22:33:12.891Z,15.80
2016-12-23T22:34:12.706Z,15.80
2016-12-23T22:35:13.334Z,15.80
2016-12-23T22:36:12.254Z,15.80
2016-12-23T22:37:12.052Z,15.80
2016-12-23T22:38:13.292Z,15.80
2016-12-23T22:39:14.047Z,15.80
2016-12-23T22:40:11.934Z,15.80
2016-12-23T22:41:13.235Z,15.80
2016-12-23T22:42:12.076Z,15.80
2016-12-23T22:43:12.390Z,15.80
2016-12-23T22:44:12.498Z,15.80
2016-12-23T22:45:10.396Z,15.80
2016-12-23T22:46:12.846Z,15.80
2016-12-23T22:47:14.756Z,15.80
2016-12-23T22:48:12.945Z,15.80
2016-12-23T22:49:13.010Z,15.80
2016-12-23T22:50:13.895Z,15.70
2016-12-23T22:51:14.701Z,15.80
2016-12-23T22:52:12.743Z,15.80
2016-12-23T22:53:09.645Z,15.80
2016-12-23T22:54:11.826Z,15.80
2016-12-23T22:55:13.235Z,15.80
2016-12-23T22:56:12.355Z,15.80
2016-12-23T22:57:11.875Z,15.80
2016-12-23T22:58:13.395Z,15.80
2016-12-23T22:59:15.097Z,15.80
2016-12-23T23:00:12.003Z,15.80
2016-12-23T23:01:11.934Z,15.80
2016-12-23T23:02:12.767Z,15.80
2016-12-23T23:03:12.326Z,15.80
2016-12-23T23:04:12.869Z,15.80
2016-12-23T23:05:12.345Z,15.80
2016-12-23T23:06:12.431Z,15.70
2016-12-23T23:07:15.645Z,15.80
2016-12-23T23:08:12.833Z,15.80
2016-12-23T23:09:12.588Z,15.70
2016-12-23T23:10:12.443Z,15.70
2016-12-23T23:11:10.322Z,15.80
2016-12-23T23:12:14.274Z,15.80
2016-12-23T23:13:20.946Z,15.80
2016-12-23T23:14:14.147Z,15.80
2016-12-23T23:15:11.925Z,15.80
2016-12-23T23:16:11.470Z,15.80
2016-12-23T23:17:12.495Z,15.80
2016-12-23T23:18:12.408Z,15.80
2016-12-23T23:19:12.928Z,15.70
2016-12-23T23:20:13.164Z,15.80
2016-12-23T23:21:12.115Z,15.70
2016-12-23T23:22:12.078Z,15.80
2016-12-23T23:23:11.626Z,15.80
2016-12-23T23:24:12.636Z,15.80
2016-12-23T23:25:12.197Z,15.70
2016-12-23T23:26:11.526Z,15.80
2016-12-23T23:27:12.315Z,15.60
2016-12-23T23:28:12.005Z,15.80
2016-12-23T23:29:13.365Z,15.80
2016-12-23T23:30:12.223Z,15.70
2016-12-23T23:31:13.786Z,15.70
2016-12-23T23:32:09.313Z,15.70
2016-12-23T23:33:14.349Z,15.70
2016-12-23T23:34:12.229Z,15.70
2016-12-23T23:35:12.239Z,15.70
2016-12-23T23:36:12.212Z,15.70
2016-12-23T23:37:09.056Z,15.70
2016-12-23T23:38:11.483Z,15.70
2016-12-23T23:39:12.864Z,15.70
2016-12-23T23:40:12.469Z,15.70
2016-12-23T23:41:12.582Z,15.70
2016-12-23T23:42:11.815Z,15.70
2016-12-23T23:43:12.767Z,15.70
2016-12-23T23:44:14.156Z,15.70
2016-12-23T23:45:12.094Z,15.70
2016-12-23T23:46:12.132Z,15.70
2016-12-23T23:47:12.142Z,15.70
2016-12-23T23:48:12.838Z,15.70
2016-12-23T23:49:12.707Z,15.70
2016-12-23T23:50:12.386Z,15.70
2016-12-23T23:51:13.550Z,15.70
2016-12-23T23:52:11.888Z,15.70
2016-12-23T23:53:13.787Z,15.70
2016-12-23T23:54:15.032Z,15.70
2016-12-23T23:55:12.022Z,15.70
2016-12-23T23:56:11.699Z,15.70
2016-12-23T23:57:12.563Z,15.70
2016-12-23T23:58:12.079Z,15.70
2016-12-23T23:59:12.310Z,15.70
